createdAt,value
2023-12-12T00:01:25.633Z,8.00
2023-12-12T00:06:31.764Z,10.00
2023-12-12T00:11:34.822Z,8.25
2023-12-12T00:16:37.942Z,10.33
2023-12-12T00:21:41.085Z,7.67
2023-12-12T00:26:44.132Z,9.75
2023-12-12T00:31:47.119Z,9.50
2023-12-12T00:36:50.206Z,7.67
2023-12-12T00:41:54.075Z,7.25
2023-12-12T00:46:57.096Z,8.50
2023-12-12T00:52:00.274Z,8.75
2023-12-12T00:57:03.762Z,7.33
2023-12-12T01:02:06.748Z,10.25
2023-12-12T01:07:09.818Z,7.25
2023-12-12T01:12:12.875Z,7.25
2023-12-12T01:17:15.965Z,8.50
2023-12-12T01:22:19.283Z,8.25
2023-12-12T01:27:22.337Z,6.50
2023-12-12T01:32:25.752Z,10.50
2023-12-12T01:37:29.029Z,8.67
2023-12-12T01:42:32.371Z,6.00
2023-12-12T01:47:35.826Z,8.00
2023-12-12T01:52:39.307Z,8.25
2023-12-12T01:57:42.626Z,8.25
2023-12-12T02:02:45.741Z,7.50
2023-12-12T02:07:50.457Z,9.00
2023-12-12T02:12:54.790Z,7.25
2023-12-12T02:17:57.991Z,7.50
2023-12-12T02:23:01.046Z,9.67
2023-12-12T02:28:04.524Z,7.75
2023-12-12T02:33:07.580Z,8.75
2023-12-12T02:38:10.874Z,9.00
2023-12-12T02:43:13.984Z,8.33
2023-12-12T02:48:17.705Z,6.67
2023-12-12T02:53:20.788Z,11.50
2023-12-12T02:58:24.035Z,7.00
2023-12-12T03:03:27.055Z,10.25
2023-12-12T03:08:30.202Z,9.00
2023-12-12T03:13:36.538Z,8.25
2023-12-12T03:18:39.571Z,10.50
2023-12-12T03:23:42.624Z,7.25
2023-12-12T03:28:45.611Z,6.00
2023-12-12T03:33:48.671Z,7.67
2023-12-12T03:38:51.813Z,6.67
2023-12-12T03:43:54.915Z,6.00
2023-12-12T03:48:57.992Z,7.00
2023-12-12T03:54:01.041Z,6.33
2023-12-12T03:59:04.098Z,7.00
2023-12-12T04:04:07.339Z,9.25
2023-12-12T04:09:10.392Z,5.75
2023-12-12T04:14:13.520Z,9.75
2023-12-12T04:19:16.561Z,6.50
2023-12-12T04:24:19.744Z,7.67
2023-12-12T04:29:22.693Z,8.00
2023-12-12T04:34:25.828Z,7.00
2023-12-12T04:39:29.195Z,10.00
2023-12-12T04:44:32.186Z,10.50
2023-12-12T04:49:35.755Z,8.00
2023-12-12T04:54:38.849Z,12.50
2023-12-12T04:59:41.894Z,9.50
2023-12-12T05:04:44.981Z,8.75
2023-12-12T05:09:47.965Z,9.75
2023-12-12T05:14:50.945Z,10.67
2023-12-12T05:19:54.020Z,13.00
2023-12-12T05:24:58.326Z,12.67
2023-12-12T05:30:01.277Z,11.25
2023-12-12T05:35:04.667Z,14.33
2023-12-12T05:40:08.401Z,12.50
2023-12-12T05:45:11.605Z,15.00
2023-12-12T05:50:14.743Z,15.00
2023-12-12T05:55:18.222Z,13.75
2023-12-12T06:00:21.573Z,14.50
2023-12-12T06:05:24.797Z,15.50
2023-12-12T06:10:29.071Z,13.25
2023-12-12T06:15:32.087Z,15.25
2023-12-12T06:20:36.645Z,17.67
2023-12-12T06:25:39.918Z,13.25
2023-12-12T06:30:43.427Z,16.25
2023-12-12T06:35:47.081Z,19.75
2023-12-12T06:40:50.219Z,16.00
2023-12-12T06:45:53.882Z,17.50
2023-12-12T06:50:57.136Z,15.50
2023-12-12T06:56:00.771Z,14.75
2023-12-12T07:01:05.620Z,16.25
2023-12-12T07:06:11.454Z,15.25
2023-12-12T07:11:17.217Z,11.75
2023-12-12T07:16:22.395Z,9.75
2023-12-12T07:21:25.610Z,9.00
2023-12-12T07:26:28.656Z,10.50
2023-12-12T07:31:31.768Z,11.50
2023-12-12T07:36:36.056Z,15.75
2023-12-12T07:41:39.162Z,15.25
2023-12-12T07:46:42.607Z,13.50
2023-12-12T07:51:46.040Z,14.25
2023-12-12T07:56:49.111Z,14.00
2023-12-12T08:01:52.692Z,14.50
2023-12-12T08:06:56.282Z,15.00
2023-12-12T08:11:59.372Z,14.75
2023-12-12T08:17:02.475Z,14.25
2023-12-12T08:22:05.686Z,14.75
2023-12-12T08:27:08.863Z,14.50
2023-12-12T08:32:12.478Z,15.75
2023-12-12T08:37:17.737Z,14.75
2023-12-12T08:42:22.020Z,15.75
2023-12-12T08:47:28.200Z,17.25
2023-12-12T08:52:38.056Z,16.25
2023-12-12T08:57:41.529Z,13.50
2023-12-12T09:02:44.771Z,15.00
2023-12-12T09:07:47.918Z,16.50
2023-12-12T09:12:51.067Z,13.75
2023-12-12T09:18:10.274Z,15.00
2023-12-12T09:23:18.099Z,16.00
2023-12-12T09:28:21.280Z,14.50
2023-12-12T09:33:24.479Z,13.00
2023-12-12T09:38:28.258Z,19.00
2023-12-12T09:43:33.136Z,14.50
2023-12-12T09:48:37.225Z,14.67
2023-12-12T09:53:47.659Z,15.00
2023-12-12T09:58:50.917Z,14.00
2023-12-12T10:03:55.505Z,15.67
2023-12-12T10:08:59.336Z,14.25
2023-12-12T10:14:02.463Z,14.00
2023-12-12T10:19:05.802Z,16.00
2023-12-12T10:24:09.071Z,16.75
2023-12-12T10:29:12.181Z,15.67
2023-12-12T10:34:15.447Z,17.33
2023-12-12T10:39:18.616Z,16.00
2023-12-12T10:44:23.024Z,15.50
2023-12-12T10:49:30.318Z,14.00
2023-12-12T10:54:36.979Z,14.50
2023-12-12T10:59:58.792Z,14.50
2023-12-12T11:05:05.274Z,12.00
2023-12-12T11:10:09.918Z,14.25
2023-12-12T11:15:14.581Z,11.75
2023-12-12T11:20:19.243Z,11.50
2023-12-12T11:25:23.970Z,14.33
2023-12-12T11:30:46.739Z,12.00
2023-12-12T11:35:50.509Z,14.25
2023-12-12T11:41:15.704Z,13.50
2023-12-12T11:46:22.706Z,13.50
2023-12-12T11:51:34.831Z,14.50
2023-12-12T11:56:38.163Z,10.75
2023-12-12T12:01:41.325Z,12.75
2023-12-12T12:06:45.033Z,13.25
2023-12-12T12:11:49.893Z,12.50
2023-12-12T12:16:54.429Z,11.75
2023-12-12T12:22:09.412Z,10.00
2023-12-12T12:27:13.008Z,14.25
2023-12-12T12:32:17.817Z,13.00
2023-12-12T12:37:33.710Z,10.00
2023-12-12T12:42:39.074Z,11.67
2023-12-12T12:47:42.190Z,10.00
2023-12-12T12:52:46.191Z,10.75
2023-12-12T12:57:49.263Z,9.00
2023-12-12T13:02:52.342Z,9.33
2023-12-12T13:07:55.480Z,11.00
2023-12-12T13:12:58.522Z,17.33
2023-12-12T13:18:01.631Z,20.33
2023-12-12T13:23:04.703Z,21.00
2023-12-12T13:28:08.438Z,16.33
2023-12-12T13:33:13.052Z,17.75
2023-12-12T13:38:16.394Z,15.33
2023-12-12T13:43:20.152Z,20.33
2023-12-12T13:48:23.254Z,17.67
2023-12-12T13:53:26.417Z,20.50
2023-12-12T13:58:29.498Z,20.25
2023-12-12T14:03:32.639Z,18.67
2023-12-12T14:08:36.440Z,18.75
2023-12-12T14:13:39.471Z,17.50
2023-12-12T14:18:42.676Z,18.00
2023-12-12T14:23:45.737Z,20.33
2023-12-12T14:28:51.252Z,17.75
2023-12-12T14:33:58.020Z,19.00
2023-12-12T14:39:02.119Z,18.50
2023-12-12T14:44:05.376Z,18.50
2023-12-12T14:49:08.535Z,20.75
2023-12-12T14:54:11.577Z,15.50
2023-12-12T14:59:15.293Z,17.00
2023-12-12T15:04:18.503Z,17.75
2023-12-12T15:09:25.147Z,20.50
2023-12-12T15:14:28.443Z,16.25
2023-12-12T15:19:31.593Z,17.25
2023-12-12T15:24:34.699Z,15.50
2023-12-12T15:29:38.824Z,18.00
2023-12-12T15:34:41.871Z,17.00
2023-12-12T15:39:44.932Z,15.25
2023-12-12T15:44:47.954Z,18.25
2023-12-12T15:49:51.066Z,16.33
2023-12-12T15:54:54.224Z,16.33
2023-12-12T15:59:57.285Z,18.25
2023-12-12T16:05:00.544Z,17.25
2023-12-12T16:10:08.084Z,17.67
2023-12-12T16:15:11.985Z,20.00
2023-12-12T16:20:15.295Z,14.67
2023-12-12T16:25:18.529Z,13.50
2023-12-12T16:30:21.818Z,14.25
2023-12-12T16:35:27.745Z,15.50
2023-12-12T16:40:31.734Z,14.00
2023-12-12T16:45:34.761Z,14.25
2023-12-12T16:50:38.109Z,16.00
2023-12-12T16:55:41.384Z,16.75
2023-12-12T17:00:44.486Z,14.50
2023-12-12T17:05:47.571Z,14.75
2023-12-12T17:10:51.307Z,14.00
2023-12-12T17:15:57.785Z,16.67
2023-12-12T17:21:00.736Z,17.00
2023-12-12T17:26:03.773Z,14.25
2023-12-12T17:31:07.411Z,18.67
2023-12-12T17:36:10.597Z,14.75
2023-12-12T17:41:17.304Z,15.00
2023-12-12T17:46:20.455Z,13.67
2023-12-12T17:51:23.530Z,14.00
2023-12-12T17:56:26.541Z,14.00
2023-12-12T18:01:38.954Z,15.00
2023-12-12T18:06:42.113Z,14.25
2023-12-12T18:11:45.330Z,15.00
2023-12-12T18:16:48.385Z,13.75
2023-12-12T18:21:51.436Z,14.75
2023-12-12T18:26:56.180Z,13.50
2023-12-12T18:31:59.824Z,14.00
2023-12-12T18:37:03.823Z,13.75
2023-12-12T18:42:07.340Z,13.75
2023-12-12T18:47:10.334Z,14.25
2023-12-12T18:52:13.800Z,17.50
2023-12-12T18:57:16.848Z,15.25
2023-12-12T19:02:19.978Z,15.33
2023-12-12T19:07:23.174Z,17.75
2023-12-12T19:12:26.133Z,14.00
2023-12-12T19:17:30.160Z,16.00
2023-12-12T19:22:33.807Z,14.25
2023-12-12T19:27:37.053Z,14.00
2023-12-12T19:32:41.903Z,13.75
2023-12-12T19:37:45.153Z,14.25
2023-12-12T19:42:49.211Z,13.50
2023-12-12T19:47:52.542Z,15.00
2023-12-12T19:52:55.616Z,12.75
2023-12-12T19:57:58.708Z,12.25
2023-12-12T20:03:01.675Z,13.00
2023-12-12T20:08:05.160Z,15.00
2023-12-12T20:13:08.325Z,13.67
2023-12-12T20:18:11.389Z,16.25
2023-12-12T20:23:14.677Z,13.75
2023-12-12T20:28:18.404Z,15.67
2023-12-12T20:33:21.495Z,15.25
2023-12-12T20:38:24.570Z,12.33
2023-12-12T20:43:27.689Z,16.00
2023-12-12T20:48:30.795Z,13.33
2023-12-12T20:53:34.023Z,12.00
2023-12-12T20:58:38.107Z,14.25
2023-12-12T21:03:41.217Z,14.75
2023-12-12T21:08:44.229Z,14.33
2023-12-12T21:13:47.773Z,11.75
2023-12-12T21:18:51.318Z,16.50
2023-12-12T21:23:54.453Z,13.33
2023-12-12T21:28:57.466Z,16.00
2023-12-12T21:34:00.599Z,15.67
2023-12-12T21:39:05.666Z,13.50
2023-12-12T21:44:08.870Z,13.50
2023-12-12T21:49:14.435Z,13.25
2023-12-12T21:54:17.673Z,14.00
2023-12-12T21:59:20.700Z,15.25
2023-12-12T22:04:23.795Z,14.25
2023-12-12T22:09:26.822Z,14.75
2023-12-12T22:14:29.762Z,14.50
2023-12-12T22:19:33.753Z,10.33
2023-12-12T22:24:41.034Z,13.75
2023-12-12T22:29:44.003Z,14.00
2023-12-12T22:34:47.077Z,16.00
2023-12-12T22:39:50.156Z,12.67
2023-12-12T22:44:53.238Z,16.00
2023-12-12T22:49:56.284Z,14.00
2023-12-12T22:54:59.417Z,14.00
2023-12-12T23:00:10.339Z,15.00
2023-12-12T23:05:13.380Z,15.67
2023-12-12T23:10:16.631Z,13.00
2023-12-12T23:15:19.768Z,15.00
2023-12-12T23:20:22.933Z,15.50
2023-12-12T23:25:25.977Z,14.25
2023-12-12T23:30:29.085Z,14.00
2023-12-12T23:35:32.521Z,15.75
2023-12-12T23:40:35.640Z,18.00
2023-12-12T23:45:38.862Z,12.75
2023-12-12T23:50:41.960Z,14.75
2023-12-12T23:55:45.068Z,19.00
